Time;durP1;ratioP1;P1;durP2;ratioP2;P2;SDS_P1;SDS_P2;PMS_P1;PMS_P2;Temp;Humidity;BMP_temperature;BMP_pressure;BME280_temperature;BME280_humidity;BME280_pressure;Samples;Min_cycle;Max_cycle;Signal;HPM_P1;HPM_P2
2024/03/27 00:01:10;;;;;;;11.70;6.10;;;9.00;99.90;;;;;;5063107;28;20513;-76
2024/03/27 00:03:36;;;;;;;10.68;5.57;;;9.00;99.90;;;;;;5052333;28;20052;-76
2024/03/27 00:06:05;;;;;;;13.38;6.40;;;8.90;99.90;;;;;;5045248;28;20140;-75
2024/03/27 00:08:32;;;;;;;8.45;5.68;;;8.90;99.90;;;;;;5027846;28;20131;-76
2024/03/27 00:10:58;;;;;;;10.07;5.55;;;8.90;99.90;;;;;;5047729;28;20033;-76
2024/03/27 00:13:24;;;;;;;14.50;5.82;;;9.00;99.90;;;;;;5017063;28;20036;-75
2024/03/27 00:15:52;;;;;;;15.88;6.38;;;9.00;99.90;;;;;;5044628;28;20040;-75
2024/03/27 00:18:17;;;;;;;11.25;6.00;;;9.00;99.90;;;;;;5058683;28;20041;-75
2024/03/27 00:20:43;;;;;;;9.95;5.50;;;9.00;99.90;;;;;;5041836;28;20041;-76
2024/03/27 00:23:09;;;;;;;8.88;5.72;;;9.00;99.90;;;;;;5044690;28;20409;-76
2024/03/27 00:25:34;;;;;;;12.20;5.72;;;9.10;99.90;;;;;;5033129;28;20515;-75
2024/03/27 00:28:00;;;;;;;11.00;5.50;;;9.10;99.90;;;;;;5034079;28;20143;-76
2024/03/27 00:30:26;;;;;;;9.63;6.15;;;9.10;99.90;;;;;;5027882;28;20537;-76
2024/03/27 00:32:51;;;;;;;10.18;6.10;;;9.10;99.90;;;;;;5051676;28;20041;-76
2024/03/27 00:35:17;;;;;;;9.77;5.93;;;9.10;99.90;;;;;;5031166;28;20409;-76
2024/03/27 00:37:43;;;;;;;14.55;6.00;;;9.20;99.90;;;;;;5017774;28;20041;-76
2024/03/27 00:40:09;;;;;;;12.35;5.75;;;9.10;99.90;;;;;;5030864;28;20040;-76
2024/03/27 00:42:35;;;;;;;10.50;5.68;;;9.00;99.90;;;;;;5032794;28;20074;-76
2024/03/27 00:45:00;;;;;;;11.65;6.25;;;9.00;99.90;;;;;;5057032;28;20489;-76
2024/03/27 00:47:27;;;;;;;15.68;6.10;;;9.00;99.90;;;;;;5020450;28;20033;-76
2024/03/27 00:49:52;;;;;;;10.38;6.32;;;9.00;99.90;;;;;;5051533;28;20040;-76
2024/03/27 00:52:18;;;;;;;13.57;6.40;;;8.90;99.90;;;;;;5039717;28;20535;-76
2024/03/27 00:54:44;;;;;;;21.65;6.80;;;8.90;99.90;;;;;;5032825;28;20045;-76
2024/03/27 00:57:09;;;;;;;10.57;6.68;;;8.90;99.90;;;;;;5034628;28;20121;-76
2024/03/27 00:59:35;;;;;;;16.13;6.82;;;8.80;99.90;;;;;;5033996;28;20166;-76
2024/03/27 01:02:01;;;;;;;16.52;6.70;;;8.80;99.90;;;;;;5033899;28;20044;-76
2024/03/27 01:04:27;;;;;;;14.57;7.00;;;8.90;99.90;;;;;;5014930;28;20470;-76
2024/03/27 01:06:52;;;;;;;12.20;6.53;;;8.80;99.90;;;;;;5033484;28;20067;-76
2024/03/27 01:09:18;;;;;;;17.40;6.95;;;8.80;99.90;;;;;;5050244;28;20029;-76
2024/03/27 01:11:44;;;;;;;13.48;6.28;;;9.00;99.90;;;;;;5029147;28;20039;-76
2024/03/27 01:14:10;;;;;;;12.50;7.13;;;8.80;99.90;;;;;;5048291;28;20033;-76
2024/03/27 01:16:36;;;;;;;11.55;7.38;;;8.80;99.90;;;;;;5044907;28;20044;-76
2024/03/27 01:19:02;;;;;;;14.35;7.03;;;8.90;99.90;;;;;;5052559;28;20029;-76
2024/03/27 01:21:27;;;;;;;17.73;7.15;;;8.90;99.90;;;;;;5030558;28;20033;-76
2024/03/27 01:23:53;;;;;;;11.88;7.20;;;8.80;99.90;;;;;;5060544;28;20047;-76
2024/03/27 01:26:19;;;;;;;16.77;7.38;;;8.80;99.90;;;;;;5049263;28;20037;-76
2024/03/27 01:28:45;;;;;;;11.50;7.05;;;8.70;99.90;;;;;;5045015;28;20037;-76
2024/03/27 01:31:10;;;;;;;11.63;7.03;;;8.80;99.90;;;;;;5033317;28;20124;-76
2024/03/27 01:33:36;;;;;;;14.95;7.30;;;8.70;99.90;;;;;;5033075;28;20823;-76
2024/03/27 01:36:02;;;;;;;16.58;7.70;;;8.70;99.90;;;;;;5049869;28;20097;-76
2024/03/27 01:38:27;;;;;;;14.95;7.03;;;8.70;99.90;;;;;;5017740;28;20539;-76
2024/03/27 01:40:53;;;;;;;13.25;7.70;;;8.70;99.90;;;;;;5027493;28;20041;-76
2024/03/27 01:43:19;;;;;;;12.77;6.75;;;8.70;99.90;;;;;;5050077;28;20033;-76
2024/03/27 01:45:44;;;;;;;11.85;6.93;;;8.70;99.90;;;;;;5023333;28;20040;-76
2024/03/27 01:48:10;;;;;;;14.13;7.15;;;8.70;99.90;;;;;;5033082;28;20470;-76
2024/03/27 01:50:36;;;;;;;12.68;7.05;;;8.90;99.90;;;;;;5038305;28;20075;-76
2024/03/27 01:53:02;;;;;;;12.23;6.75;;;8.70;99.90;;;;;;5045224;28;20456;-76
2024/03/27 01:55:29;;;;;;;15.18;7.13;;;8.70;99.90;;;;;;5026823;28;20525;-76
2024/03/27 01:57:56;;;;;;;13.15;7.10;;;8.60;99.90;;;;;;5031442;28;20421;-76
2024/03/27 02:00:23;;;;;;;14.38;6.90;;;8.60;99.90;;;;;;5049292;28;20561;-76
2024/03/27 02:02:50;;;;;;;16.05;6.63;;;8.60;99.90;;;;;;5056875;28;20124;-76
2024/03/27 02:05:16;;;;;;;9.70;6.22;;;8.60;99.90;;;;;;5014666;28;20033;-76
2024/03/27 02:07:44;;;;;;;16.58;6.78;;;8.60;99.90;;;;;;5039765;28;20075;-76
2024/03/27 02:10:10;;;;;;;11.73;6.55;;;8.60;99.90;;;;;;5038043;28;20037;-76
2024/03/27 02:12:39;;;;;;;13.77;5.95;;;8.60;99.90;;;;;;5048146;28;20498;-76
2024/03/27 02:15:06;;;;;;;11.38;6.75;;;8.60;99.90;;;;;;5048741;28;20047;-76
2024/03/27 02:17:32;;;;;;;12.98;6.63;;;8.60;99.90;;;;;;5033619;28;20111;-75
2024/03/27 02:19:58;;;;;;;12.63;6.57;;;8.60;99.90;;;;;;5033139;28;20037;-76
2024/03/27 02:22:25;;;;;;;10.13;5.95;;;8.50;99.90;;;;;;5053464;28;20041;-76
2024/03/27 02:25:14;;;;;;;13.93;5.90;;;8.50;99.90;;;;;;5029276;28;20048;-76
2024/03/27 02:27:40;;;;;;;9.90;5.90;;;8.50;99.90;;;;;;5025629;28;20521;-76
2024/03/27 02:30:06;;;;;;;11.02;6.93;;;8.50;99.90;;;;;;5030394;28;20045;-76
2024/03/27 02:32:33;;;;;;;9.55;5.95;;;8.50;99.90;;;;;;5049386;28;20049;-76
2024/03/27 02:34:59;;;;;;;12.30;6.72;;;8.50;99.90;;;;;;5030373;28;20084;-76
2024/03/27 02:37:25;;;;;;;12.40;5.93;;;8.40;99.90;;;;;;5026123;28;20073;-76
2024/03/27 02:39:50;;;;;;;9.38;5.82;;;8.40;99.90;;;;;;5026536;28;20128;-76
2024/03/27 02:42:16;;;;;;;12.60;6.13;;;8.40;99.90;;;;;;5028391;28;20585;-76
2024/03/27 02:44:41;;;;;;;12.38;5.80;;;8.40;99.90;;;;;;5035412;28;20047;-76
2024/03/27 02:47:07;;;;;;;11.48;6.32;;;8.40;99.90;;;;;;5052980;28;20060;-76
2024/03/27 02:49:32;;;;;;;9.77;6.05;;;8.40;99.90;;;;;;5036886;28;20039;-76
2024/03/27 02:51:58;;;;;;;11.90;5.68;;;8.40;99.90;;;;;;5046991;28;20057;-76
2024/03/27 02:54:24;;;;;;;11.77;6.07;;;8.40;99.90;;;;;;5034220;28;20048;-76
2024/03/27 02:56:50;;;;;;;11.15;6.15;;;8.50;99.90;;;;;;5053992;28;20040;-76
2024/03/27 02:59:16;;;;;;;11.18;6.60;;;8.30;99.90;;;;;;5035908;28;20033;-76
2024/03/27 03:01:41;;;;;;;9.38;5.85;;;8.30;99.90;;;;;;5033522;28;20390;-76
2024/03/27 03:04:07;;;;;;;12.60;6.13;;;8.30;99.90;;;;;;5047724;28;20448;-76
2024/03/27 03:06:35;;;;;;;10.27;5.47;;;8.20;99.90;;;;;;5051074;28;20590;-76
2024/03/27 03:09:01;;;;;;;9.75;5.78;;;8.20;99.90;;;;;;5045247;28;20094;-76
2024/03/27 03:11:26;;;;;;;12.23;6.20;;;8.20;99.90;;;;;;5048482;28;20472;-76
2024/03/27 03:13:52;;;;;;;13.02;6.07;;;8.20;99.90;;;;;;5051472;28;20474;-76
2024/03/27 03:16:18;;;;;;;8.95;5.75;;;8.20;99.90;;;;;;5049894;28;20039;-76
2024/03/27 03:18:48;;;;;;;9.40;5.63;;;8.20;99.90;;;;;;5036097;28;20552;-75
2024/03/27 03:21:13;;;;;;;12.07;5.97;;;8.10;99.90;;;;;;5031055;28;20049;-76
2024/03/27 03:23:39;;;;;;;15.52;6.07;;;8.20;99.90;;;;;;5039599;28;20102;-76
2024/03/27 03:26:05;;;;;;;11.40;6.03;;;8.20;99.90;;;;;;5039079;28;20047;-76
2024/03/27 03:28:30;;;;;;;13.57;5.78;;;8.20;99.90;;;;;;5047905;28;20039;-75
2024/03/27 03:31:05;;;;;;;11.98;5.80;;;8.20;99.90;;;;;;5056560;28;20053;-75
2024/03/27 03:33:31;;;;;;;11.70;6.22;;;8.10;99.90;;;;;;5028123;28;20041;-75
2024/03/27 03:35:57;;;;;;;13.30;6.07;;;8.20;99.90;;;;;;5043916;28;20037;-76
2024/03/27 03:38:24;;;;;;;13.00;6.28;;;8.10;99.90;;;;;;5051285;28;20407;-76
2024/03/27 03:40:56;;;;;;;11.48;6.10;;;8.10;99.90;;;;;;5052531;28;20033;-76
2024/03/27 03:43:22;;;;;;;14.30;6.10;;;8.10;99.90;;;;;;5042226;28;20469;-76
2024/03/27 03:45:48;;;;;;;10.70;5.90;;;8.10;99.90;;;;;;5050317;28;20034;-75
2024/03/27 03:48:14;;;;;;;10.65;6.30;;;8.50;99.90;;;;;;5065073;28;20079;-75
2024/03/27 03:50:39;;;;;;;8.65;6.15;;;8.10;99.90;;;;;;5034331;28;20029;-75
2024/03/27 03:53:05;;;;;;;12.95;5.85;;;8.10;99.90;;;;;;5045612;28;20086;-76
2024/03/27 03:55:30;;;;;;;18.15;6.18;;;8.20;99.90;;;;;;5032007;28;20049;-76
2024/03/27 03:57:56;;;;;;;10.70;6.32;;;8.20;99.90;;;;;;5028715;28;20510;-76
2024/03/27 04:00:24;;;;;;;14.10;6.10;;;8.20;99.90;;;;;;5033694;28;20080;-76
2024/03/27 04:02:51;;;;;;;9.00;6.05;;;8.20;99.90;;;;;;5034034;28;20115;-76
2024/03/27 04:05:16;;;;;;;11.15;5.70;;;8.20;99.90;;;;;;5034688;28;20042;-76
2024/03/27 04:07:42;;;;;;;11.82;6.18;;;8.30;99.90;;;;;;5054809;28;20055;-76
2024/03/27 04:10:08;;;;;;;10.20;5.97;;;8.30;99.90;;;;;;5050876;28;20028;-76
2024/03/27 04:12:34;;;;;;;11.13;5.80;;;8.40;99.90;;;;;;5030560;28;20131;-76
2024/03/27 04:14:59;;;;;;;9.63;6.18;;;8.50;99.90;;;;;;5027712;28;20132;-76
2024/03/27 04:17:25;;;;;;;11.88;6.65;;;8.40;99.90;;;;;;5037483;28;20033;-76
2024/03/27 04:19:50;;;;;;;9.52;5.60;;;8.50;99.90;;;;;;5032518;28;20048;-76
2024/03/27 04:22:16;;;;;;;14.15;6.28;;;8.50;99.90;;;;;;5057112;28;20037;-76
2024/03/27 04:24:47;;;;;;;11.32;6.13;;;8.50;99.90;;;;;;5033289;28;20041;-76
2024/03/27 04:27:13;;;;;;;12.45;6.38;;;8.60;99.90;;;;;;5060742;28;20090;-76
2024/03/27 04:29:39;;;;;;;13.05;6.30;;;8.60;99.90;;;;;;5032236;28;20391;-76
2024/03/27 04:32:05;;;;;;;10.48;6.00;;;8.60;99.90;;;;;;5035123;28;20036;-76
2024/03/27 04:34:31;;;;;;;13.23;6.03;;;8.70;99.90;;;;;;5033561;28;20056;-76
2024/03/27 04:36:57;;;;;;;15.40;6.47;;;8.70;99.90;;;;;;5034953;28;20037;-76
2024/03/27 04:39:23;;;;;;;13.10;6.10;;;8.70;99.90;;;;;;5050459;28;20028;-76
2024/03/27 04:41:50;;;;;;;12.35;6.43;;;8.70;99.90;;;;;;5033068;28;20037;-76
2024/03/27 04:44:15;;;;;;;11.00;6.07;;;8.70;99.90;;;;;;5050024;28;20044;-76
2024/03/27 04:46:41;;;;;;;10.88;5.82;;;8.70;99.90;;;;;;5048177;28;20086;-76
2024/03/27 04:49:06;;;;;;;9.82;5.68;;;8.70;99.90;;;;;;5045656;28;20502;-76
2024/03/27 04:51:32;;;;;;;9.05;5.97;;;8.70;99.90;;;;;;5015001;28;20076;-76
2024/03/27 04:53:57;;;;;;;9.93;5.85;;;8.70;99.90;;;;;;5028952;28;20608;-76
2024/03/27 04:56:23;;;;;;;11.65;5.72;;;8.70;99.90;;;;;;5031297;28;20552;-76
2024/03/27 04:58:49;;;;;;;10.40;6.35;;;8.70;99.90;;;;;;5030356;28;20125;-76
2024/03/27 05:01:14;;;;;;;17.80;6.68;;;8.70;99.90;;;;;;5051850;28;20093;-76
2024/03/27 05:03:40;;;;;;;11.95;6.28;;;8.70;99.90;;;;;;5033240;28;20044;-76
2024/03/27 05:06:06;;;;;;;13.93;6.85;;;8.70;99.90;;;;;;5047442;28;20104;-75
2024/03/27 05:08:31;;;;;;;13.60;6.95;;;8.70;99.90;;;;;;5033780;28;20537;-76
2024/03/27 05:10:57;;;;;;;11.10;5.95;;;8.70;99.90;;;;;;5045227;28;20032;-76
2024/03/27 05:13:22;;;;;;;11.07;5.93;;;8.80;99.90;;;;;;5058415;28;20614;-76
2024/03/27 05:15:48;;;;;;;12.88;6.50;;;8.80;99.90;;;;;;5039666;28;20115;-76
2024/03/27 05:18:14;;;;;;;14.75;6.32;;;8.80;99.90;;;;;;5029090;28;20040;-76
2024/03/27 05:20:41;;;;;;;11.85;6.57;;;8.80;99.90;;;;;;5031516;28;20064;-76
2024/03/27 05:23:07;;;;;;;11.85;6.10;;;8.80;99.90;;;;;;5060761;28;20080;-76
2024/03/27 05:25:32;;;;;;;11.48;6.53;;;8.80;99.90;;;;;;5059127;28;20070;-75
2024/03/27 05:27:58;;;;;;;10.82;5.97;;;8.80;99.90;;;;;;5033739;28;20559;-76
2024/03/27 05:30:25;;;;;;;16.15;6.68;;;8.80;99.90;;;;;;5032555;28;20480;-76
2024/03/27 05:32:51;;;;;;;11.45;6.20;;;8.80;99.90;;;;;;5032066;28;20094;-76
2024/03/27 05:35:17;;;;;;;10.98;5.97;;;8.80;99.90;;;;;;5027433;28;20040;-76
2024/03/27 05:37:43;;;;;;;9.68;5.93;;;8.80;99.90;;;;;;5031635;28;20375;-77
2024/03/27 05:40:10;;;;;;;15.43;6.97;;;8.80;99.90;;;;;;5047804;28;20041;-78
2024/03/27 05:42:36;;;;;;;11.57;6.53;;;8.80;99.90;;;;;;5046019;28;20124;-78
2024/03/27 05:45:02;;;;;;;10.65;6.10;;;8.90;99.90;;;;;;5046408;28;20116;-77
2024/03/27 05:47:27;;;;;;;12.57;6.43;;;8.90;99.90;;;;;;5050963;28;20032;-77
2024/03/27 05:49:53;;;;;;;10.63;6.18;;;8.90;99.90;;;;;;5050040;28;20037;-77
2024/03/27 05:52:18;;;;;;;11.13;5.70;;;8.90;99.90;;;;;;5048651;28;20051;-77
2024/03/27 05:54:44;;;;;;;10.65;6.25;;;8.90;99.90;;;;;;5047820;28;20407;-77
2024/03/27 05:57:10;;;;;;;10.50;6.15;;;8.90;99.90;;;;;;5044067;28;20123;-77
2024/03/27 05:59:35;;;;;;;11.45;6.32;;;9.00;99.90;;;;;;5052572;28;20041;-77
2024/03/27 06:02:01;;;;;;;11.50;6.53;;;9.00;99.90;;;;;;5032441;28;20045;-76
2024/03/27 06:04:26;;;;;;;13.75;6.70;;;9.00;99.90;;;;;;5044455;28;20037;-76
2024/03/27 06:06:52;;;;;;;12.57;6.95;;;9.00;99.90;;;;;;5045717;28;20041;-76
2024/03/27 06:09:19;;;;;;;11.25;6.10;;;9.00;99.90;;;;;;5047589;28;20701;-76
2024/03/27 06:11:44;;;;;;;12.02;6.65;;;9.10;99.90;;;;;;5030093;28;20042;-76
2024/03/27 06:14:10;;;;;;;11.43;5.63;;;9.10;99.90;;;;;;5022189;28;20037;-76
2024/03/27 06:16:35;;;;;;;16.13;6.88;;;9.10;99.90;;;;;;5037880;28;20060;-76
2024/03/27 06:19:01;;;;;;;11.20;6.28;;;9.70;99.90;;;;;;5027909;28;20401;-76
2024/03/27 06:21:26;;;;;;;11.80;6.82;;;9.20;99.90;;;;;;5049016;28;20112;-76
2024/03/27 06:23:52;;;;;;;10.25;6.15;;;9.20;99.90;;;;;;5047446;28;20049;-76
2024/03/27 06:26:19;;;;;;;10.95;6.43;;;9.20;99.90;;;;;;5038226;28;20041;-76
2024/03/27 06:28:45;;;;;;;15.93;6.65;;;9.20;99.90;;;;;;5056215;28;20040;-77
2024/03/27 06:31:10;;;;;;;13.50;7.28;;;9.30;99.90;;;;;;5030017;28;20561;-76
2024/03/27 06:33:36;;;;;;;10.30;6.63;;;9.20;99.90;;;;;;5057076;28;20101;-75
2024/03/27 06:36:02;;;;;;;16.23;6.75;;;9.30;99.90;;;;;;5054666;28;20037;-76
2024/03/27 06:38:27;;;;;;;10.98;6.53;;;9.30;99.90;;;;;;5049173;28;20077;-76
2024/03/27 06:40:53;;;;;;;12.20;6.35;;;9.40;99.90;;;;;;5058648;28;20048;-76
2024/03/27 06:43:22;;;;;;;13.07;7.22;;;9.40;99.90;;;;;;5048095;28;20088;-76
2024/03/27 06:45:48;;;;;;;11.15;6.70;;;9.50;99.90;;;;;;5056170;28;20033;-76
2024/03/27 06:48:17;;;;;;;11.57;6.80;;;9.50;99.90;;;;;;5035500;28;20072;-75
2024/03/27 06:50:53;;;;;;;12.63;6.93;;;9.50;99.90;;;;;;5060756;28;20059;-76
2024/03/27 06:53:18;;;;;;;13.07;6.82;;;9.60;99.90;;;;;;5050359;28;20051;-75
2024/03/27 06:55:44;;;;;;;11.32;6.70;;;9.70;99.90;;;;;;5052929;28;20404;-77
2024/03/27 06:58:10;;;;;;;13.80;7.03;;;9.70;99.90;;;;;;5054152;28;20037;-77
2024/03/27 07:00:35;;;;;;;13.23;6.90;;;9.70;99.90;;;;;;5046316;28;20040;-79
2024/03/27 07:03:01;;;;;;;12.70;7.13;;;9.80;99.90;;;;;;5021506;28;20516;-78
2024/03/27 07:05:26;;;;;;;13.00;6.82;;;9.80;99.90;;;;;;5036434;28;20040;-78
2024/03/27 07:07:52;;;;;;;11.77;6.90;;;9.80;99.90;;;;;;5042849;28;20028;-78
2024/03/27 07:10:18;;;;;;;10.50;6.82;;;9.90;99.90;;;;;;5035118;28;20640;-78
2024/03/27 07:12:44;;;;;;;10.77;6.75;;;10.00;99.90;;;;;;5030190;28;20041;-78
2024/03/27 07:15:10;;;;;;;11.57;6.25;;;10.00;99.90;;;;;;5026557;28;20405;-78
2024/03/27 07:17:36;;;;;;;13.77;6.45;;;10.00;99.90;;;;;;5033594;28;20056;-78
2024/03/27 07:20:02;;;;;;;12.88;6.50;;;10.10;99.90;;;;;;5035144;28;20052;-78
2024/03/27 07:22:28;;;;;;;10.93;5.95;;;10.20;99.90;;;;;;5045883;28;20049;-79
2024/03/27 07:24:53;;;;;;;9.43;6.05;;;10.20;99.90;;;;;;5046751;28;20144;-78
2024/03/27 07:27:19;;;;;;;11.27;5.88;;;10.30;99.90;;;;;;5029171;28;20456;-79
2024/03/27 07:29:45;;;;;;;8.95;6.00;;;10.40;99.90;;;;;;5024840;28;20037;-79
2024/03/27 07:32:10;;;;;;;11.93;5.85;;;10.40;99.90;;;;;;5028735;28;20116;-79
2024/03/27 07:34:36;;;;;;;9.95;5.47;;;10.40;99.90;;;;;;5032976;28;20049;-79
2024/03/27 07:37:02;;;;;;;9.70;5.60;;;10.50;99.90;;;;;;5028553;28;20077;-79
2024/03/27 07:39:27;;;;;;;11.98;5.57;;;10.50;99.90;;;;;;5033927;28;20043;-78
2024/03/27 07:41:53;;;;;;;9.70;5.40;;;10.60;99.90;;;;;;5034534;28;20041;-78
2024/03/27 07:44:18;;;;;;;7.13;4.95;;;10.50;99.90;;;;;;5032440;28;20040;-77
2024/03/27 07:46:44;;;;;;;9.88;5.85;;;10.50;99.90;;;;;;5021327;28;20068;-78
2024/03/27 07:49:10;;;;;;;8.65;5.57;;;10.60;99.90;;;;;;5014244;28;20098;-78
2024/03/27 07:51:36;;;;;;;10.43;6.03;;;10.70;99.90;;;;;;5037256;28;20045;-78
2024/03/27 07:54:02;;;;;;;11.82;5.68;;;10.70;99.90;;;;;;5031938;28;20029;-79
2024/03/27 07:56:27;;;;;;;8.70;5.38;;;10.70;99.90;;;;;;5032684;28;20446;-78
2024/03/27 07:58:53;;;;;;;10.10;5.68;;;10.70;99.90;;;;;;5011633;28;20721;-78
2024/03/27 08:01:19;;;;;;;9.52;6.03;;;10.70;99.90;;;;;;5052594;28;20041;-78
2024/03/27 08:03:45;;;;;;;9.88;6.30;;;10.80;99.90;;;;;;5028434;28;20078;-79
2024/03/27 08:06:14;;;;;;;9.55;6.32;;;10.80;99.90;;;;;;5014782;28;20111;-78
2024/03/27 08:08:40;;;;;;;8.68;6.05;;;10.80;99.90;;;;;;5033662;28;20063;-78
2024/03/27 08:11:06;;;;;;;8.82;5.82;;;10.80;99.90;;;;;;5050517;28;20489;-78
2024/03/27 08:13:32;;;;;;;10.75;6.22;;;10.80;99.90;;;;;;5024075;28;20167;-78
2024/03/27 08:16:02;;;;;;;14.43;6.50;;;10.90;99.90;;;;;;5023384;28;20033;-78
2024/03/27 08:18:44;;;;;;;12.13;6.95;;;10.90;99.90;;;;;;5044227;28;20045;-78
2024/03/27 08:21:10;;;;;;;12.02;7.60;;;11.00;99.90;;;;;;5002147;28;20064;-78
2024/03/27 08:23:35;;;;;;;9.60;6.60;;;11.00;99.90;;;;;;5012382;28;20048;-78
2024/03/27 08:26:02;;;;;;;9.48;5.88;;;11.00;99.90;;;;;;5029677;28;20033;-78
2024/03/27 08:28:28;;;;;;;10.18;6.45;;;11.00;99.90;;;;;;5019245;28;20073;-78
2024/03/27 08:30:54;;;;;;;10.13;6.60;;;11.30;99.90;;;;;;5042738;28;20053;-78
2024/03/27 08:33:21;;;;;;;12.45;6.30;;;11.10;99.90;;;;;;5033970;28;20033;-78
2024/03/27 08:35:47;;;;;;;9.98;5.78;;;11.10;99.90;;;;;;5026072;28;20575;-77
2024/03/27 08:38:13;;;;;;;9.55;5.80;;;11.20;99.90;;;;;;5053146;28;20029;-78
2024/03/27 08:40:38;;;;;;;10.15;5.88;;;11.20;99.90;;;;;;5050817;28;20040;-78
2024/03/27 08:43:04;;;;;;;10.95;6.55;;;11.30;99.90;;;;;;5035471;28;20040;-78
2024/03/27 08:45:29;;;;;;;9.75;6.72;;;11.20;99.90;;;;;;5008962;28;20080;-78
2024/03/27 08:47:55;;;;;;;10.23;6.45;;;11.20;99.90;;;;;;5029710;28;20128;-79
2024/03/27 08:50:21;;;;;;;7.97;5.78;;;11.30;99.90;;;;;;5046560;28;20029;-79
2024/03/27 08:52:47;;;;;;;8.75;6.32;;;11.30;99.90;;;;;;5028673;28;20071;-78
2024/03/27 08:55:13;;;;;;;10.48;6.22;;;11.20;99.90;;;;;;5029332;28;20044;-79
2024/03/27 08:57:39;;;;;;;10.10;5.80;;;11.20;99.90;;;;;;5028118;28;20073;-78
2024/03/27 09:00:05;;;;;;;10.23;5.95;;;11.10;99.90;;;;;;5027032;28;20430;-78
2024/03/27 09:02:31;;;;;;;9.80;6.15;;;11.20;99.90;;;;;;5048275;28;20047;-78
2024/03/27 09:04:57;;;;;;;9.38;5.90;;;11.20;99.90;;;;;;5024580;28;20029;-77
2024/03/27 09:07:23;;;;;;;10.70;5.88;;;11.20;99.90;;;;;;5012515;28;20531;-79
2024/03/27 09:09:49;;;;;;;10.00;6.55;;;11.20;99.90;;;;;;5042432;28;20118;-78
2024/03/27 09:12:14;;;;;;;7.85;5.72;;;11.20;99.90;;;;;;5043819;28;20036;-78
2024/03/27 09:14:41;;;;;;;8.57;6.28;;;11.20;99.90;;;;;;5040685;28;20040;-78
2024/03/27 09:17:06;;;;;;;8.90;6.10;;;11.30;99.90;;;;;;5045829;28;20048;-78
2024/03/27 09:19:32;;;;;;;10.65;6.35;;;11.30;99.90;;;;;;5036558;28;20453;-79
2024/03/27 09:21:58;;;;;;;8.60;5.68;;;11.20;99.90;;;;;;5022321;28;20171;-78
2024/03/27 09:24:24;;;;;;;9.35;6.35;;;11.30;99.90;;;;;;5035046;28;20387;-78
2024/03/27 09:26:51;;;;;;;9.80;6.07;;;11.10;99.90;;;;;;5056576;28;20100;-78
2024/03/27 09:29:17;;;;;;;9.18;6.05;;;11.00;99.90;;;;;;5030198;28;20064;-79
2024/03/27 09:31:43;;;;;;;11.88;6.25;;;11.10;99.90;;;;;;5028035;28;20045;-78
2024/03/27 09:34:08;;;;;;;11.68;6.18;;;10.80;99.90;;;;;;5030566;28;20039;-81
2024/03/27 09:36:34;;;;;;;8.75;5.38;;;10.70;99.90;;;;;;5046721;28;20045;-78
2024/03/27 09:39:00;;;;;;;8.60;5.75;;;10.60;99.90;;;;;;5039076;28;20036;-77
2024/03/27 09:41:26;;;;;;;8.20;5.65;;;10.60;99.90;;;;;;5044029;28;20079;-79
2024/03/27 09:43:55;;;;;;;8.27;5.70;;;10.60;99.90;;;;;;5028111;28;20037;-78
2024/03/27 09:46:21;;;;;;;8.23;5.85;;;10.60;99.90;;;;;;5047483;28;20041;-76
2024/03/27 09:48:47;;;;;;;8.60;5.78;;;10.50;99.90;;;;;;5021562;28;20048;-78
2024/03/27 09:51:16;;;;;;;9.27;5.68;;;10.40;99.90;;;;;;5045674;28;20094;-80
2024/03/27 09:53:43;;;;;;;7.93;5.43;;;10.40;99.90;;;;;;5030546;28;20052;-78
2024/03/27 09:56:10;;;;;;;9.20;5.85;;;10.30;99.90;;;;;;5033246;28;20076;-77
2024/03/27 09:58:36;;;;;;;11.15;5.82;;;10.20;99.90;;;;;;5053481;28;20106;-77
2024/03/27 10:01:06;;;;;;;11.77;6.05;;;10.20;99.90;;;;;;5020764;28;20033;-79
2024/03/27 10:03:34;;;;;;;11.55;6.03;;;10.20;99.90;;;;;;5028871;28;20103;-78
2024/03/27 10:06:00;;;;;;;10.52;5.60;;;10.10;99.90;;;;;;5048309;28;20041;-78
2024/03/27 10:08:26;;;;;;;8.52;6.03;;;10.10;99.90;;;;;;5048323;28;20048;-78
2024/03/27 10:10:56;;;;;;;10.25;6.22;;;10.00;99.90;;;;;;5041985;28;20044;-78
2024/03/27 10:13:22;;;;;;;9.60;6.13;;;10.00;99.90;;;;;;5024990;28;20045;-78
2024/03/27 10:15:51;;;;;;;13.82;7.05;;;10.00;99.90;;;;;;5056175;28;20059;-79
2024/03/27 10:18:16;;;;;;;10.73;6.43;;;9.90;99.90;;;;;;5034551;28;20045;-78
2024/03/27 10:20:42;;;;;;;14.40;6.93;;;9.90;99.90;;;;;;5013474;28;20055;-78
2024/03/27 10:23:11;;;;;;;11.18;7.40;;;10.00;99.90;;;;;;5043307;28;20048;-78
2024/03/27 10:25:38;;;;;;;13.15;7.00;;;10.10;99.90;;;;;;5049454;28;20056;-78
2024/03/27 10:28:10;;;;;;;9.13;6.50;;;10.10;99.90;;;;;;5031638;28;20052;-78
2024/03/27 10:30:37;;;;;;;;;;;10.10;99.90;;;;;;5028996;28;20049;-78
2024/03/27 10:33:03;;;;;;;12.82;6.88;;;10.30;99.90;;;;;;5024888;28;19921;-79
2024/03/27 10:35:31;;;;;;;10.68;6.97;;;10.30;99.90;;;;;;5032074;28;20124;-77
2024/03/27 10:37:58;;;;;;;10.43;7.47;;;10.40;99.90;;;;;;5010888;28;20040;-78
2024/03/27 10:40:23;;;;;;;12.55;7.75;;;10.40;99.90;;;;;;5040416;28;20060;-78
2024/03/27 10:43:16;;;;;;;11.05;7.72;;;10.50;99.90;;;;;;5052091;28;20461;-79
2024/03/27 10:45:43;;;;;;;11.40;7.85;;;10.50;99.90;;;;;;5011086;28;20561;-79
2024/03/27 10:48:09;;;;;;;12.68;7.85;;;10.60;99.90;;;;;;5037538;28;20490;-80
2024/03/27 10:50:37;;;;;;;12.00;7.65;;;10.60;99.90;;;;;;5043119;28;20034;-80
2024/03/27 10:53:04;;;;;;;14.55;7.93;;;10.60;99.90;;;;;;5036637;28;20045;-79
2024/03/27 10:55:32;;;;;;;10.02;7.53;;;10.80;99.90;;;;;;5039067;28;20601;-77
2024/03/27 10:58:00;;;;;;;11.80;8.50;;;10.90;99.90;;;;;;5031775;28;20037;-77
2024/03/27 11:00:26;;;;;;;15.77;7.47;;;10.80;99.90;;;;;;5048880;28;20040;-77
2024/03/27 11:02:52;;;;;;;10.43;7.97;;;10.90;99.90;;;;;;5045442;28;20115;-79
2024/03/27 11:05:19;;;;;;;14.10;9.13;;;11.10;99.90;;;;;;5043454;28;20120;-78
2024/03/27 11:07:46;;;;;;;12.90;8.60;;;11.00;99.90;;;;;;5058056;28;20059;-77
2024/03/27 11:10:22;;;;;;;12.93;8.93;;;11.10;99.90;;;;;;5047251;28;20088;-79
2024/03/27 11:12:49;;;;;;;15.70;8.93;;;11.00;99.90;;;;;;5042589;28;20036;-79
2024/03/27 11:15:15;;;;;;;13.85;9.45;;;11.10;99.90;;;;;;5051276;28;20071;-78
2024/03/27 11:17:53;;;;;;;14.27;9.90;;;11.00;99.90;;;;;;5052644;28;20569;-79
2024/03/27 11:20:22;;;;;;;14.10;9.73;;;11.00;99.90;;;;;;5024237;28;20086;-78
2024/03/27 11:22:51;;;;;;;12.57;8.70;;;11.00;99.90;;;;;;5031375;28;20498;-78
2024/03/27 11:25:25;;;;;;;15.65;10.00;;;11.10;99.90;;;;;;5034796;28;20041;-79
2024/03/27 11:27:50;;;;;;;12.45;9.30;;;11.00;99.90;;;;;;5017041;28;20060;-78
2024/03/27 11:30:20;;;;;;;12.93;9.35;;;11.10;99.90;;;;;;5038380;28;20498;-79
2024/03/27 11:32:47;;;;;;;15.10;9.00;;;11.00;99.90;;;;;;5043126;28;20040;-78
2024/03/27 11:35:18;;;;;;;12.85;9.32;;;10.90;99.90;;;;;;5014456;28;20045;-78
2024/03/27 11:37:44;;;;;;;12.85;9.05;;;11.10;99.90;;;;;;5049198;28;20104;-79
2024/03/27 11:40:10;;;;;;;13.40;9.15;;;10.90;99.90;;;;;;5038160;28;20033;-79
2024/03/27 11:42:36;;;;;;;15.38;8.73;;;10.90;99.90;;;;;;5030084;28;20633;-79
2024/03/27 11:45:09;;;;;;;14.00;7.97;;;10.80;99.90;;;;;;5040032;28;20874;-78
2024/03/27 11:47:34;;;;;;;13.80;8.20;;;10.80;99.90;;;;;;5030781;28;20087;-78
2024/03/27 11:50:00;;;;;;;11.80;7.63;;;10.80;99.90;;;;;;5022184;28;20042;-79
2024/03/27 11:52:26;;;;;;;14.10;8.75;;;10.80;99.90;;;;;;5029713;28;20402;-79
2024/03/27 11:54:55;;;;;;;11.93;8.73;;;10.80;99.90;;;;;;5020690;28;20135;-79
2024/03/27 11:57:21;;;;;;;15.20;9.07;;;10.80;99.90;;;;;;5034892;28;20033;-79
2024/03/27 11:59:47;;;;;;;15.25;9.63;;;10.70;99.90;;;;;;5023709;28;20554;-79
2024/03/27 12:02:13;;;;;;;12.25;8.90;;;10.70;99.90;;;;;;5044023;28;20037;-79
2024/03/27 12:04:39;;;;;;;13.75;8.82;;;10.70;99.90;;;;;;5047708;28;20040;-79
2024/03/27 12:07:05;;;;;;;13.15;8.63;;;10.60;99.90;;;;;;5044516;28;20525;-79
2024/03/27 12:09:38;;;;;;;15.88;9.65;;;10.70;99.90;;;;;;5037593;28;20044;-77
2024/03/27 12:12:04;;;;;;;15.38;9.57;;;10.50;99.90;;;;;;5029001;28;20037;-78
2024/03/27 12:14:31;;;;;;;15.23;9.80;;;10.40;99.90;;;;;;5056994;28;20029;-78
2024/03/27 12:16:57;;;;;;;15.93;9.80;;;10.40;99.90;;;;;;5027431;28;20046;-78
2024/03/27 12:19:23;;;;;;;13.90;10.32;;;10.30;99.90;;;;;;5021255;28;20047;-80
2024/03/27 12:21:49;;;;;;;16.73;9.48;;;10.30;99.90;;;;;;5041568;28;20114;-78
2024/03/27 12:24:16;;;;;;;15.98;10.40;;;10.20;99.90;;;;;;5031291;28;20116;-79
2024/03/27 12:26:45;;;;;;;16.20;10.07;;;10.20;99.90;;;;;;5030048;28;20489;-78
2024/03/27 12:29:11;;;;;;;16.92;10.23;;;10.20;99.90;;;;;;5050975;28;20413;-78
2024/03/27 12:31:36;;;;;;;17.00;9.60;;;10.10;99.90;;;;;;5056784;28;20045;-79
2024/03/27 12:34:02;;;;;;;14.13;9.25;;;10.10;99.90;;;;;;5041986;28;20045;-78
2024/03/27 12:36:29;;;;;;;14.20;8.65;;;10.00;99.90;;;;;;5027314;28;20499;-78
2024/03/27 12:38:55;;;;;;;12.82;8.50;;;10.00;99.90;;;;;;5031297;28;20045;-78
2024/03/27 12:41:21;;;;;;;15.68;8.63;;;10.00;99.90;;;;;;5022998;28;20041;-79